Airfield :
LOGIN :

Register | Disclaimer

   EN    FR    IT 

 










Legend :    VFR   Marginal VFR   IFR   Intensive IFR   Very Intensive IFR
Visi :
Ceiling :
>= 8 km
>= 3000ft
5 to 8 km
1000 to 3000 ft
1500m to 5 km
500 to 1000 ft
800 to 1500m
200 to 500 ft
< 800m
< 200 ft
Symbols :   Thunderstorms  Fog  Heavy snow  Heavy precipitations  Wind > 20 kt
SIGMETs :     Misc.  Thunderstorms  Icing  Turbulence  Mountain Waves  Volcanic Ashes






- Airport Elevation : 12 ft
- IATA code : NCE


LFMN - Nice

CURRENT METAR :
  • 170230Z 23014KT CAVOK 15/09 Q1005 TEMPO 25015G25KT

EXPIRED METARs :
  • 170200Z 24012KT CAVOK 15/10 Q1005 TEMPO 25015G25KT
  • 170130Z 23016KT CAVOK 15/11 Q1005 TEMPO 25015G25KT
  • 170100Z 24013KT CAVOK 16/11 Q1005 TEMPO 25015G25KT
  • 170000Z 24016KT CAVOK 16/10 Q1006 TEMPO 25015G25KT

TAF TAF LFMN
Valid from the 17 at 03:00 until the 18 at 09:00 UTC


170200Z 1703/1809 26012KT CAVOK
TEMPO 1703/1706 26015G25KT
PROB30
TEMPO 1703/1706 33010KT
PROB40
TEMPO 1710/1717 10010KT
TEMPO 1713/1719 27015G25KT
BECMG 1720/1722 33006KT
BECMG 1807/1809 11010KT
ATIS : +33 4 93 17 21 16



MET'MAP, your aeronautical weather chart ! - Copyright ORBIFLY December 2007 - Disclaimer

ORBIFLY MET'MAP TEAM :

Programming & Development : Alexandra Zaïnal
Concept & original design : Baudouin d'Aumeries
Assistance for programming : Marc-Olivier Méhu
Technical & hardware support : Manuel Goepfert

Contact : metmap@orbifly.com




SOURCES & CREDITS :

   NOAA